Victor, Iowa
Current Conditions -  °F | °C
As of 4:15 AM on Thursday 23 Oct 2014 (Local Time) from KGGI Reporting Station
Overcast Overcast  
Wind Chill: 47°   Ceiling: 6000
Heat Index: 49°   Visibility: 10mi
Dew Point: 44°   Wind: 5mph
Humidity: 84%   Direction: 140°SE
Pressure: 30.1"   Gusts: NA
Location:  41.73°N, 92.3°W
Report Text: KGGI 230915Z AUTO 14004KT 10SM SCT030 BKN060 OVC075 09/07 A3010 RMK AO2 T00920067
Loading
Personal Weather Stations






























Interactive Weather Map
Tropical Storm Tracking
New forecast layout! Learn more

10-Day Weather Forecast

Advertisements
Track Severe Weather on mobile